createdAt,value
2022-10-26T00:00:50.208Z,13.99
2022-10-26T00:03:58.216Z,14.01
2022-10-26T00:07:03.664Z,14.01
2022-10-26T00:10:11.197Z,13.98
2022-10-26T00:13:16.709Z,13.94
2022-10-26T00:16:24.567Z,13.94
2022-10-26T00:19:30.367Z,13.95
2022-10-26T00:22:35.918Z,13.97
2022-10-26T00:25:41.567Z,14.00
2022-10-26T00:28:47.060Z,14.03
2022-10-26T00:31:52.668Z,14.07
2022-10-26T00:35:06.083Z,14.11
2022-10-26T00:38:21.583Z,14.14
2022-10-26T00:41:30.249Z,14.18
2022-10-26T00:45:01.808Z,14.19
2022-10-26T00:48:12.945Z,14.19
2022-10-26T00:51:25.597Z,14.18
2022-10-26T00:54:31.315Z,14.16
2022-10-26T00:57:39.049Z,14.16
2022-10-26T01:00:45.302Z,14.18
2022-10-26T01:03:49.654Z,14.20
2022-10-26T01:06:56.344Z,14.18
2022-10-26T01:10:02.674Z,14.20
2022-10-26T01:13:08.864Z,14.22
2022-10-26T01:16:22.581Z,14.24
2022-10-26T01:19:59.744Z,14.21
2022-10-26T01:23:14.713Z,14.24
2022-10-26T01:27:02.964Z,14.24
2022-10-26T01:30:28.278Z,14.24
2022-10-26T01:33:44.373Z,14.23
2022-10-26T01:36:56.082Z,14.22
2022-10-26T01:40:10.577Z,14.20
2022-10-26T01:43:18.089Z,14.18
2022-10-26T01:46:25.519Z,14.17
2022-10-26T01:49:34.297Z,14.15
2022-10-26T01:52:40.711Z,14.09
2022-10-26T01:55:50.329Z,14.03
2022-10-26T01:59:27.815Z,13.99
2022-10-26T02:02:48.486Z,13.94
2022-10-26T02:06:08.038Z,13.89
2022-10-26T02:09:24.773Z,13.85
2022-10-26T02:12:37.014Z,13.83
2022-10-26T02:15:49.922Z,13.79
2022-10-26T02:19:03.105Z,13.76
2022-10-26T02:22:15.049Z,13.72
2022-10-26T02:25:24.957Z,13.69
2022-10-26T02:28:36.493Z,13.66
2022-10-26T02:31:45.067Z,13.62
2022-10-26T02:34:52.880Z,13.56
2022-10-26T02:38:01.334Z,13.49
2022-10-26T02:41:09.029Z,13.43
2022-10-26T02:44:21.513Z,13.36
2022-10-26T02:47:28.069Z,13.30
2022-10-26T02:50:39.400Z,13.25
2022-10-26T02:53:51.255Z,13.20
2022-10-26T02:57:00.637Z,13.16
2022-10-26T03:00:08.170Z,13.12
2022-10-26T03:03:14.762Z,13.10
2022-10-26T03:06:25.149Z,13.07
2022-10-26T03:09:30.982Z,13.06
2022-10-26T03:12:36.529Z,13.04
2022-10-26T03:15:42.715Z,12.99
2022-10-26T03:18:48.141Z,12.96
2022-10-26T03:21:53.588Z,12.93
2022-10-26T03:24:59.103Z,12.93
2022-10-26T03:28:05.989Z,12.96
2022-10-26T03:31:11.568Z,12.98
2022-10-26T03:34:17.016Z,13.01
2022-10-26T03:37:22.461Z,13.02
2022-10-26T03:40:28.010Z,13.02
2022-10-26T03:43:33.430Z,12.99
2022-10-26T03:46:38.904Z,12.98
2022-10-26T03:49:44.354Z,12.96
2022-10-26T03:52:51.365Z,12.94
2022-10-26T03:55:57.091Z,12.91
2022-10-26T03:59:02.947Z,12.87
2022-10-26T04:02:08.396Z,12.84
2022-10-26T04:05:14.395Z,12.79
2022-10-26T04:08:20.037Z,12.76
2022-10-26T04:11:25.554Z,12.74
2022-10-26T04:14:31.104Z,12.70
2022-10-26T04:17:36.653Z,12.66
2022-10-26T04:20:42.940Z,12.62
2022-10-26T04:23:46.913Z,12.61
2022-10-26T04:26:52.379Z,12.57
2022-10-26T04:29:57.929Z,12.58
2022-10-26T04:33:03.409Z,12.56
2022-10-26T04:36:10.720Z,12.54
2022-10-26T04:39:16.527Z,12.49
2022-10-26T04:42:22.073Z,12.43
2022-10-26T04:45:31.125Z,12.39
2022-10-26T04:48:36.858Z,12.37
2022-10-26T04:51:42.307Z,12.33
2022-10-26T04:54:48.059Z,12.30
2022-10-26T04:57:55.984Z,12.27
2022-10-26T05:01:05.395Z,12.24
2022-10-26T05:04:11.059Z,12.21
2022-10-26T05:07:16.606Z,12.19
2022-10-26T05:10:22.158Z,12.16
2022-10-26T05:16:38.272Z,12.11
2022-10-26T05:19:43.720Z,12.08
2022-10-26T05:22:55.006Z,12.05
2022-10-26T05:26:00.478Z,12.01
2022-10-26T05:29:05.972Z,11.99
2022-10-26T05:32:11.446Z,11.97
2022-10-26T05:35:17.329Z,11.95
2022-10-26T05:38:22.991Z,11.94
2022-10-26T05:41:28.738Z,11.94
2022-10-26T05:44:34.156Z,11.96
2022-10-26T05:47:42.316Z,11.97
2022-10-26T05:50:48.191Z,11.97
2022-10-26T05:53:55.619Z,11.93
2022-10-26T05:57:02.293Z,11.89
2022-10-26T06:00:11.597Z,11.87
2022-10-26T06:03:32.651Z,11.87
2022-10-26T06:06:45.259Z,11.88
2022-10-26T06:09:52.345Z,11.86
2022-10-26T06:12:58.941Z,11.84
2022-10-26T06:16:29.351Z,11.82
2022-10-26T06:19:48.418Z,11.82
2022-10-26T06:23:06.356Z,11.84
2022-10-26T06:26:19.226Z,11.84
2022-10-26T06:29:37.850Z,11.85
2022-10-26T06:32:45.541Z,11.85
2022-10-26T06:36:03.382Z,11.86
2022-10-26T06:39:12.128Z,11.88
2022-10-26T06:42:18.942Z,11.91
2022-10-26T06:45:25.805Z,11.93
2022-10-26T06:48:36.254Z,11.94
2022-10-26T06:51:48.269Z,11.94
2022-10-26T06:54:55.800Z,11.96
2022-10-26T06:58:02.946Z,11.99
2022-10-26T07:01:11.906Z,12.02
2022-10-26T07:04:17.482Z,12.07
2022-10-26T07:07:24.923Z,12.11
2022-10-26T07:10:30.431Z,12.15
2022-10-26T07:13:35.974Z,12.17
2022-10-26T07:16:41.523Z,12.20
2022-10-26T07:19:46.956Z,12.25
2022-10-26T07:22:56.760Z,12.30
2022-10-26T07:26:03.521Z,12.36
2022-10-26T07:29:09.148Z,12.41
2022-10-26T07:32:14.589Z,12.49
2022-10-26T07:35:20.146Z,12.55
2022-10-26T07:38:26.004Z,12.61
2022-10-26T07:41:31.477Z,12.68
2022-10-26T07:44:36.999Z,12.77
2022-10-26T07:47:42.547Z,12.86
2022-10-26T07:50:48.009Z,12.98
2022-10-26T07:53:53.408Z,13.10
2022-10-26T07:56:59.626Z,13.18
2022-10-26T08:00:05.101Z,13.28
2022-10-26T08:03:10.602Z,13.34
2022-10-26T08:06:16.561Z,13.45
2022-10-26T08:09:22.008Z,13.56
2022-10-26T08:12:27.659Z,13.67
2022-10-26T08:15:33.107Z,13.78
2022-10-26T08:18:38.560Z,13.90
2022-10-26T08:21:44.000Z,14.02
2022-10-26T08:24:49.550Z,14.13
2022-10-26T08:27:55.613Z,14.24
2022-10-26T08:31:02.393Z,14.35
2022-10-26T08:34:07.939Z,14.47
2022-10-26T08:37:13.383Z,14.57
2022-10-26T08:40:21.021Z,14.68
2022-10-26T08:43:34.783Z,14.79
2022-10-26T08:46:45.739Z,14.91
2022-10-26T08:49:59.592Z,15.04
2022-10-26T08:53:14.368Z,15.16
2022-10-26T08:56:23.065Z,15.30
2022-10-26T08:59:36.694Z,15.41
2022-10-26T09:02:42.327Z,15.53
2022-10-26T09:06:06.410Z,15.66
2022-10-26T09:09:19.028Z,15.79
2022-10-26T09:12:35.224Z,15.91
2022-10-26T09:15:58.284Z,16.02
2022-10-26T09:19:32.814Z,16.14
2022-10-26T09:22:48.823Z,16.26
2022-10-26T09:26:01.627Z,16.37
2022-10-26T09:29:12.297Z,16.48
2022-10-26T09:32:20.907Z,16.57
2022-10-26T09:38:41.335Z,16.75
2022-10-26T09:41:51.318Z,16.85
2022-10-26T09:44:59.909Z,16.93
2022-10-26T09:48:13.397Z,17.00
2022-10-26T09:51:19.815Z,17.08
2022-10-26T09:54:25.577Z,17.16
2022-10-26T09:57:31.669Z,17.23
2022-10-26T10:00:38.922Z,17.30
2022-10-26T10:03:44.396Z,17.36
2022-10-26T10:06:51.658Z,17.43
2022-10-26T10:10:16.458Z,17.51
2022-10-26T10:13:25.434Z,17.57
2022-10-26T10:16:30.937Z,17.66
2022-10-26T10:19:38.478Z,17.72
2022-10-26T10:22:57.832Z,17.79
2022-10-26T10:26:06.212Z,17.90
2022-10-26T10:29:18.531Z,18.03
2022-10-26T10:32:25.874Z,18.13
2022-10-26T10:35:33.191Z,18.26
2022-10-26T10:38:44.750Z,18.40
2022-10-26T10:41:50.281Z,18.54
2022-10-26T10:44:59.197Z,18.70
2022-10-26T10:48:14.812Z,18.77
2022-10-26T10:51:25.162Z,18.37
2022-10-26T10:54:34.286Z,18.07
2022-10-26T10:57:50.870Z,18.05
2022-10-26T11:00:57.461Z,18.49
2022-10-26T11:04:34.177Z,18.89
2022-10-26T11:07:45.917Z,19.08
2022-10-26T11:10:55.703Z,18.73
2022-10-26T11:14:07.460Z,18.51
2022-10-26T11:17:19.769Z,18.55
2022-10-26T11:20:30.439Z,19.07
2022-10-26T11:23:43.189Z,19.44
2022-10-26T11:26:54.002Z,19.27
2022-10-26T11:30:06.986Z,19.03
2022-10-26T11:33:18.132Z,18.86
2022-10-26T11:36:30.379Z,18.71
2022-10-26T11:39:43.568Z,18.65
2022-10-26T11:42:56.816Z,18.72
2022-10-26T11:46:08.333Z,18.90
2022-10-26T11:49:20.697Z,19.09
2022-10-26T11:52:30.956Z,19.55
2022-10-26T11:55:36.812Z,19.51
2022-10-26T11:58:44.060Z,19.34
2022-10-26T12:01:52.209Z,19.23
2022-10-26T12:05:03.708Z,19.20
2022-10-26T12:08:15.807Z,19.21
2022-10-26T12:11:36.257Z,19.25
2022-10-26T12:14:47.537Z,19.30
2022-10-26T12:18:02.149Z,19.33
2022-10-26T12:21:09.789Z,19.37
2022-10-26T12:24:35.500Z,19.39
2022-10-26T12:27:58.475Z,19.43
2022-10-26T12:31:34.797Z,19.49
2022-10-26T12:35:05.642Z,19.56
2022-10-26T12:38:56.657Z,19.64
2022-10-26T12:42:30.369Z,19.63
2022-10-26T12:45:35.984Z,19.53
2022-10-26T12:48:44.603Z,19.44
2022-10-26T12:51:51.448Z,19.41
2022-10-26T12:55:31.822Z,19.37
2022-10-26T12:59:14.737Z,19.32
2022-10-26T13:02:41.661Z,19.26
2022-10-26T13:06:19.568Z,19.20
2022-10-26T13:09:28.834Z,19.16
2022-10-26T13:12:48.493Z,19.13
2022-10-26T13:15:58.357Z,19.08
2022-10-26T13:19:04.201Z,19.08
2022-10-26T13:22:17.276Z,19.10
2022-10-26T13:25:26.365Z,19.10
2022-10-26T13:28:45.315Z,19.10
2022-10-26T13:31:57.799Z,19.09
2022-10-26T13:35:05.322Z,19.08
2022-10-26T13:38:12.925Z,19.08
2022-10-26T13:41:34.065Z,19.03
2022-10-26T13:44:45.836Z,18.95
2022-10-26T13:47:57.345Z,18.89
2022-10-26T13:51:07.522Z,18.83
2022-10-26T13:54:22.709Z,18.79
2022-10-26T13:57:35.165Z,18.76
2022-10-26T14:00:40.949Z,18.73
2022-10-26T14:03:45.651Z,18.70
2022-10-26T14:06:52.783Z,18.70
2022-10-26T14:09:59.796Z,18.67
2022-10-26T14:13:10.284Z,18.62
2022-10-26T14:16:20.489Z,18.56
2022-10-26T14:19:30.805Z,18.47
2022-10-26T14:22:36.354Z,18.40
2022-10-26T14:25:42.357Z,18.34
2022-10-26T14:28:55.877Z,18.27
2022-10-26T14:32:01.400Z,18.20
2022-10-26T14:35:12.304Z,18.13
2022-10-26T14:38:23.149Z,18.05
2022-10-26T14:41:30.216Z,17.97
2022-10-26T14:44:39.489Z,17.87
2022-10-26T14:47:49.772Z,17.77
2022-10-26T14:51:02.882Z,17.68
2022-10-26T14:54:22.871Z,17.57
2022-10-26T14:57:37.074Z,17.42
2022-10-26T15:00:43.441Z,17.29
2022-10-26T15:03:53.660Z,17.17
2022-10-26T15:07:10.813Z,17.03
2022-10-26T15:10:48.678Z,16.89
2022-10-26T15:13:54.973Z,16.92
2022-10-26T15:17:01.437Z,17.38
2022-10-26T15:20:15.514Z,17.73
2022-10-26T15:23:22.268Z,17.95
2022-10-26T15:26:28.286Z,18.07
2022-10-26T15:29:39.923Z,18.13
2022-10-26T15:32:45.627Z,18.17
2022-10-26T15:35:51.326Z,18.23
2022-10-26T15:38:57.272Z,18.26
2022-10-26T15:42:02.788Z,18.27
2022-10-26T15:45:18.262Z,18.27
2022-10-26T15:48:29.086Z,18.09
2022-10-26T15:51:35.614Z,17.48
2022-10-26T15:54:41.167Z,16.93
2022-10-26T15:57:47.200Z,16.62
2022-10-26T16:00:53.263Z,16.82
2022-10-26T16:03:58.933Z,17.02
2022-10-26T16:07:05.969Z,17.12
2022-10-26T16:10:23.250Z,17.15
2022-10-26T16:13:28.798Z,17.17
2022-10-26T16:16:34.351Z,17.16
2022-10-26T16:19:39.899Z,17.14
2022-10-26T16:22:48.501Z,17.09
2022-10-26T16:25:53.966Z,17.02
2022-10-26T16:28:59.408Z,16.96
2022-10-26T16:32:04.962Z,16.90
2022-10-26T16:35:12.362Z,16.82
2022-10-26T16:38:17.904Z,16.75
2022-10-26T16:44:33.687Z,16.59
2022-10-26T16:47:40.246Z,16.51
2022-10-26T16:50:45.735Z,16.44
2022-10-26T16:53:52.964Z,16.37
2022-10-26T16:56:58.575Z,16.31
2022-10-26T17:00:04.330Z,16.26
2022-10-26T17:03:09.736Z,16.22
2022-10-26T17:06:15.736Z,16.18
2022-10-26T17:09:21.125Z,16.13
2022-10-26T17:15:36.992Z,16.02
2022-10-26T17:18:43.681Z,15.97
2022-10-26T17:21:49.118Z,15.93
2022-10-26T17:24:54.668Z,15.88
2022-10-26T17:28:00.318Z,15.85
2022-10-26T17:31:07.868Z,15.79
2022-10-26T17:34:13.309Z,15.72
2022-10-26T17:37:18.899Z,15.62
2022-10-26T17:40:24.465Z,15.49
2022-10-26T17:43:32.517Z,15.40
2022-10-26T17:46:37.941Z,15.32
2022-10-26T17:49:43.369Z,15.26
2022-10-26T17:52:48.921Z,15.20
2022-10-26T17:56:02.989Z,15.15
2022-10-26T17:59:12.649Z,15.08
2022-10-26T18:02:18.242Z,15.01
2022-10-26T18:05:23.854Z,14.94
2022-10-26T18:08:33.044Z,14.88
2022-10-26T18:11:38.798Z,14.79
2022-10-26T18:14:44.347Z,14.71
2022-10-26T18:17:56.732Z,14.65
2022-10-26T18:21:06.859Z,14.60
2022-10-26T18:24:12.570Z,14.54
2022-10-26T18:27:20.294Z,14.47
2022-10-26T18:30:26.900Z,14.40
2022-10-26T18:33:32.949Z,14.32
2022-10-26T18:36:39.068Z,14.26
2022-10-26T18:39:42.981Z,14.18
2022-10-26T18:42:48.527Z,14.05
2022-10-26T18:45:54.281Z,13.97
2022-10-26T18:49:01.342Z,13.90
2022-10-26T18:52:10.262Z,13.85
2022-10-26T18:55:15.751Z,13.80
2022-10-26T18:58:21.204Z,13.76
2022-10-26T19:01:28.598Z,13.72
2022-10-26T19:04:34.338Z,13.71
2022-10-26T19:07:40.137Z,13.69
2022-10-26T19:10:45.648Z,13.66
2022-10-26T19:13:52.896Z,13.62
2022-10-26T19:16:58.378Z,13.59
2022-10-26T19:20:03.970Z,13.56
2022-10-26T19:23:09.887Z,13.52
2022-10-26T19:26:17.486Z,13.48
2022-10-26T19:29:24.733Z,13.44
2022-10-26T19:32:30.940Z,13.40
2022-10-26T19:38:42.094Z,13.31
2022-10-26T19:41:46.606Z,13.30
2022-10-26T19:44:52.113Z,13.25
2022-10-26T19:47:58.379Z,13.24
2022-10-26T19:51:02.289Z,13.21
2022-10-26T19:54:08.046Z,13.15
2022-10-26T19:57:13.588Z,13.12
2022-10-26T20:00:20.085Z,13.08
2022-10-26T20:03:26.658Z,13.03
2022-10-26T20:06:32.295Z,13.00
2022-10-26T20:09:37.738Z,12.98
2022-10-26T20:12:43.184Z,12.95
2022-10-26T20:15:49.909Z,12.90
2022-10-26T20:18:55.410Z,12.85
2022-10-26T20:22:00.945Z,12.82
2022-10-26T20:25:07.604Z,12.80
2022-10-26T20:28:13.761Z,12.77
2022-10-26T20:31:17.639Z,12.74
2022-10-26T20:34:23.115Z,12.69
2022-10-26T20:37:29.830Z,12.69
2022-10-26T20:40:36.950Z,12.67
2022-10-26T20:43:43.858Z,12.65
2022-10-26T20:46:51.256Z,12.63
2022-10-26T20:49:57.768Z,12.61
2022-10-26T20:53:12.005Z,12.59
2022-10-26T20:56:23.820Z,12.55
2022-10-26T20:59:36.539Z,12.52
2022-10-26T21:02:41.980Z,12.49
2022-10-26T21:05:48.951Z,12.47
2022-10-26T21:08:55.757Z,12.45
2022-10-26T21:12:01.225Z,12.42
2022-10-26T21:15:08.481Z,12.38
2022-10-26T21:18:13.920Z,12.34
2022-10-26T21:21:19.374Z,12.28
2022-10-26T21:24:24.886Z,12.24
2022-10-26T21:27:30.508Z,12.20
2022-10-26T21:30:36.227Z,12.14
2022-10-26T21:33:42.321Z,12.09
2022-10-26T21:36:47.839Z,12.04
2022-10-26T21:39:53.285Z,12.00
2022-10-26T21:42:58.832Z,11.96
2022-10-26T21:46:04.699Z,11.93
2022-10-26T21:49:10.137Z,11.89
2022-10-26T21:52:15.688Z,11.86
2022-10-26T21:55:21.236Z,11.81
2022-10-26T21:58:26.683Z,11.76
2022-10-26T22:01:32.305Z,11.71
2022-10-26T22:04:38.806Z,11.67
2022-10-26T22:07:44.388Z,11.63
2022-10-26T22:10:49.767Z,11.58
2022-10-26T22:13:55.715Z,11.53
2022-10-26T22:17:01.110Z,11.47
2022-10-26T22:20:08.152Z,11.41
2022-10-26T22:23:13.642Z,11.39
2022-10-26T22:26:21.240Z,11.37
2022-10-26T22:29:26.654Z,11.36
2022-10-26T22:32:32.132Z,11.33
2022-10-26T22:35:37.679Z,11.29
2022-10-26T22:38:43.810Z,11.22
2022-10-26T22:41:50.519Z,11.18
2022-10-26T22:44:55.953Z,11.16
2022-10-26T22:48:01.567Z,11.14
2022-10-26T22:51:12.111Z,11.13
2022-10-26T22:54:17.866Z,11.12
2022-10-26T22:57:23.387Z,11.09
2022-10-26T23:00:28.806Z,11.07
2022-10-26T23:03:34.382Z,11.04
2022-10-26T23:06:40.036Z,11.01
2022-10-26T23:09:45.586Z,10.98
2022-10-26T23:12:54.179Z,10.94
2022-10-26T23:16:07.869Z,10.92
2022-10-26T23:19:13.789Z,10.88
2022-10-26T23:22:19.210Z,10.82
2022-10-26T23:25:24.698Z,10.77
2022-10-26T23:28:30.350Z,10.73
2022-10-26T23:31:35.736Z,10.68
2022-10-26T23:34:41.146Z,10.61
2022-10-26T23:37:46.662Z,10.58
2022-10-26T23:40:53.848Z,10.57
2022-10-26T23:43:59.429Z,10.57
2022-10-26T23:47:04.839Z,10.58
2022-10-26T23:50:11.275Z,10.59
2022-10-26T23:53:19.354Z,10.59
2022-10-26T23:56:24.811Z,10.59
2022-10-26T23:59:30.302Z,10.55
